createdAt,value
2023-03-24T00:01:03.918Z,99575.84
2023-03-24T00:03:36.807Z,99570.81
2023-03-24T00:06:09.426Z,99566.66
2023-03-24T00:08:41.733Z,99541.13
2023-03-24T00:11:18.515Z,99572.69
2023-03-24T00:13:50.848Z,99570.16
2023-03-24T00:16:22.765Z,99569.41
2023-03-24T00:18:54.409Z,99557.13
2023-03-24T00:21:27.705Z,99558.34
2023-03-24T00:24:01.453Z,99566.31
2023-03-24T00:26:35.105Z,99554.47
2023-03-24T00:29:06.662Z,99548.09
2023-03-24T00:31:40.529Z,99548.66
2023-03-24T00:34:11.634Z,99546.47
2023-03-24T00:36:43.195Z,99541.75
2023-03-24T00:39:14.101Z,99538.44
2023-03-24T00:41:48.284Z,99533.41
2023-03-24T00:44:20.915Z,99531.88
2023-03-24T00:46:55.905Z,99523.31
2023-03-24T00:49:42.367Z,99516.63
2023-03-24T00:52:16.114Z,99513.03
2023-03-24T00:54:48.673Z,99502.94
2023-03-24T00:57:23.942Z,99491.72
2023-03-24T00:59:57.978Z,99496.78
2023-03-24T01:02:31.561Z,99499.19
2023-03-24T01:05:04.997Z,99489.00
2023-03-24T01:07:35.947Z,99494.84
2023-03-24T01:10:08.888Z,99483.78
2023-03-24T01:12:43.225Z,99472.25
2023-03-24T01:15:16.842Z,99467.94
2023-03-24T01:17:49.482Z,99462.06
2023-03-24T01:20:20.597Z,99457.00
2023-03-24T01:22:51.818Z,99460.38
2023-03-24T01:25:25.862Z,99442.88
2023-03-24T01:27:59.717Z,99437.59
2023-03-24T01:30:32.369Z,99438.69
2023-03-24T01:33:03.511Z,99417.13
2023-03-24T01:35:35.897Z,99437.91
2023-03-24T01:38:09.513Z,99436.47
2023-03-24T01:40:44.433Z,99420.38
2023-03-24T01:43:22.242Z,99409.41
2023-03-24T01:46:09.622Z,99413.13
2023-03-24T01:48:47.003Z,99414.75
2023-03-24T01:51:21.479Z,99407.94
2023-03-24T01:54:12.010Z,99391.56
2023-03-24T01:56:48.680Z,99416.31
2023-03-24T01:59:27.489Z,99405.22
2023-03-24T02:02:14.011Z,99389.13
2023-03-24T02:04:58.845Z,99384.06
2023-03-24T02:07:39.686Z,99384.28
2023-03-24T02:10:14.440Z,99374.19
2023-03-24T02:12:46.737Z,99359.06
2023-03-24T02:15:22.680Z,99362.22
2023-03-24T02:18:02.740Z,99352.22
2023-03-24T02:20:57.883Z,99354.94
2023-03-24T02:24:14.459Z,99355.25
2023-03-24T02:26:58.696Z,99350.31
2023-03-24T02:30:02.398Z,99352.38
2023-03-24T02:33:11.556Z,99344.91
2023-03-24T02:36:09.787Z,99337.34
2023-03-24T02:39:10.967Z,99342.38
2023-03-24T02:41:52.220Z,99339.84
2023-03-24T02:44:29.938Z,99337.47
2023-03-24T02:47:07.453Z,99335.91
2023-03-24T02:49:45.877Z,99316.59
2023-03-24T02:52:23.602Z,99325.13
2023-03-24T02:55:03.140Z,99315.13
2023-03-24T02:57:45.706Z,99320.59
2023-03-24T03:00:22.996Z,99298.28
2023-03-24T03:03:12.242Z,99314.31
2023-03-24T03:05:48.474Z,99308.47
2023-03-24T03:08:21.906Z,99280.22
2023-03-24T03:10:56.587Z,99286.06
2023-03-24T03:13:36.157Z,99297.31
2023-03-24T03:16:12.415Z,99296.34
2023-03-24T03:18:50.198Z,99285.28
2023-03-24T03:21:27.526Z,99284.41
2023-03-24T03:24:02.384Z,99298.00
2023-03-24T03:26:35.734Z,99292.19
2023-03-24T03:29:16.845Z,99282.84
2023-03-24T03:31:53.303Z,99269.66
2023-03-24T03:34:34.114Z,99278.09
2023-03-24T03:37:11.075Z,99266.25
2023-03-24T03:39:48.172Z,99264.50
2023-03-24T03:42:19.568Z,99254.59
2023-03-24T03:44:53.216Z,99244.66
2023-03-24T03:47:24.448Z,99248.91
2023-03-24T03:49:55.828Z,99241.63
2023-03-24T03:52:26.666Z,99241.91
2023-03-24T03:54:58.621Z,99232.63
2023-03-24T03:57:30.485Z,99219.69
2023-03-24T04:00:26.220Z,99232.81
2023-03-24T04:03:37.521Z,99223.50
2023-03-24T04:06:25.582Z,99217.47
2023-03-24T04:09:04.501Z,99217.47
2023-03-24T04:12:06.629Z,99216.81
2023-03-24T04:14:54.837Z,99219.44
2023-03-24T04:18:01.180Z,99216.03
2023-03-24T04:20:53.514Z,99215.44
2023-03-24T04:23:33.050Z,99206.81
2023-03-24T04:26:12.111Z,99202.25
2023-03-24T04:28:52.434Z,99193.81
2023-03-24T04:31:29.695Z,99189.16
2023-03-24T04:34:07.387Z,99188.38
2023-03-24T04:36:43.246Z,99180.50
2023-03-24T04:39:42.032Z,99188.75
2023-03-24T04:42:22.638Z,99179.25
2023-03-24T04:44:54.238Z,99171.59
2023-03-24T04:47:50.338Z,99167.03
2023-03-24T04:50:46.335Z,99168.75
2023-03-24T04:53:22.220Z,99160.44
2023-03-24T04:56:18.586Z,99165.47
2023-03-24T04:59:15.502Z,99167.88
2023-03-24T05:01:49.921Z,99165.34
2023-03-24T05:04:28.428Z,99160.44
2023-03-24T05:07:05.531Z,99157.13
2023-03-24T05:09:35.893Z,99155.47
2023-03-24T05:12:07.375Z,99165.84
2023-03-24T05:14:53.659Z,99147.91
2023-03-24T05:17:24.629Z,99141.91
2023-03-24T05:19:55.426Z,99130.94
2023-03-24T05:22:29.087Z,99136.19
2023-03-24T05:24:59.674Z,99134.44
2023-03-24T05:27:30.691Z,99137.16
2023-03-24T05:30:04.353Z,99134.63
2023-03-24T05:32:38.087Z,99109.22
2023-03-24T05:35:09.740Z,99126.00
2023-03-24T05:44:09.060Z,99137.72
2023-03-24T05:46:46.136Z,99136.34
2023-03-24T05:49:17.106Z,99127.69
2023-03-24T05:51:47.798Z,99132.09
2023-03-24T05:54:18.580Z,99119.25
2023-03-24T05:56:51.973Z,99129.88
2023-03-24T05:59:47.975Z,99124.44
2023-03-24T06:02:24.021Z,99133.13
2023-03-24T06:05:08.447Z,99140.38
2023-03-24T06:07:39.185Z,99139.25
2023-03-24T06:10:11.784Z,99140.97
2023-03-24T06:12:49.115Z,99140.31
2023-03-24T06:15:22.927Z,99145.72
2023-03-24T06:17:54.957Z,99147.78
2023-03-24T06:20:36.304Z,99144.09
2023-03-24T06:23:12.815Z,99150.31
2023-03-24T06:25:58.516Z,99147.50
2023-03-24T06:28:30.641Z,99158.09
2023-03-24T06:31:14.985Z,99145.78
2023-03-24T06:33:46.544Z,99169.59
2023-03-24T06:36:18.451Z,99172.22
2023-03-24T06:38:51.054Z,99192.94
2023-03-24T06:41:23.916Z,99192.94
2023-03-24T06:44:02.061Z,99205.53
2023-03-24T06:46:36.821Z,99207.94
2023-03-24T06:49:07.665Z,99200.97
2023-03-24T06:51:38.275Z,99200.19
2023-03-24T06:54:10.105Z,99213.13
2023-03-24T06:56:41.047Z,99218.44
2023-03-24T06:59:12.033Z,99234.72
2023-03-24T07:01:45.545Z,99233.78
2023-03-24T07:04:29.202Z,99223.97
2023-03-24T07:07:38.151Z,99233.50
2023-03-24T07:10:19.839Z,99233.78
2023-03-24T07:12:51.373Z,99248.53
2023-03-24T07:15:22.492Z,99244.44
2023-03-24T07:17:55.873Z,99263.56
2023-03-24T07:20:47.133Z,99269.22
2023-03-24T07:23:20.206Z,99276.88
2023-03-24T07:25:57.796Z,99239.50
2023-03-24T07:28:48.508Z,99274.56
2023-03-24T07:31:54.805Z,99265.69
2023-03-24T07:34:29.266Z,99252.28
2023-03-24T07:37:01.738Z,99272.63
2023-03-24T07:39:34.165Z,99286.69
2023-03-24T07:42:05.215Z,99287.38
2023-03-24T07:44:54.998Z,99293.59
2023-03-24T07:47:28.755Z,99285.81
2023-03-24T07:50:04.548Z,99295.41
2023-03-24T07:52:37.561Z,99313.34
2023-03-24T07:55:10.866Z,99322.00
2023-03-24T07:57:54.527Z,99341.91
2023-03-24T08:00:29.649Z,99348.56
2023-03-24T08:03:16.377Z,99345.44
2023-03-24T08:06:07.886Z,99342.44
2023-03-24T08:08:48.878Z,99381.72
2023-03-24T08:11:19.446Z,99370.34
2023-03-24T08:13:51.156Z,99388.59
2023-03-24T08:16:22.228Z,99389.59
2023-03-24T08:18:53.141Z,99390.53
2023-03-24T08:21:26.868Z,99384.66
2023-03-24T08:23:57.575Z,99382.59
2023-03-24T08:26:29.315Z,99391.00
2023-03-24T08:29:03.078Z,99385.47
2023-03-24T08:31:37.277Z,99366.97
2023-03-24T08:34:11.829Z,99387.59
2023-03-24T08:36:44.709Z,99393.38
2023-03-24T08:39:17.964Z,99400.28
2023-03-24T08:41:50.385Z,99393.88
2023-03-24T08:44:21.107Z,99406.88
2023-03-24T08:46:51.746Z,99415.91
2023-03-24T08:49:22.733Z,99403.06
2023-03-24T08:51:57.352Z,99403.16
2023-03-24T08:54:28.324Z,99413.44
2023-03-24T08:56:59.204Z,99406.63
2023-03-24T08:59:30.378Z,99405.91
2023-03-24T09:02:01.121Z,99420.94
2023-03-24T09:04:31.849Z,99443.31
2023-03-24T09:07:06.160Z,99447.59
2023-03-24T09:09:37.354Z,99453.84
2023-03-24T09:12:09.929Z,99454.72
2023-03-24T09:14:40.685Z,99445.16
2023-03-24T09:17:12.530Z,99453.59
2023-03-24T09:19:43.578Z,99476.78
2023-03-24T09:22:16.865Z,99425.50
2023-03-24T09:24:49.316Z,99468.50
2023-03-24T09:27:20.532Z,99456.16
2023-03-24T09:29:51.379Z,99462.66
2023-03-24T09:32:22.139Z,99481.31
2023-03-24T09:34:52.832Z,99489.06
2023-03-24T09:37:26.100Z,99476.84
2023-03-24T09:39:59.126Z,99471.13
2023-03-24T09:42:32.443Z,99475.88
2023-03-24T09:45:10.811Z,99470.72
2023-03-24T09:47:44.296Z,99479.78
2023-03-24T09:50:24.279Z,99490.06
2023-03-24T09:53:05.055Z,99483.97
2023-03-24T09:55:38.041Z,99488.94
2023-03-24T09:58:10.738Z,99486.00
2023-03-24T10:00:41.399Z,99477.22
2023-03-24T10:03:21.334Z,99476.69
2023-03-24T10:05:57.269Z,99473.88
2023-03-24T10:08:38.773Z,99460.66
2023-03-24T10:11:17.372Z,99449.41
2023-03-24T10:14:01.542Z,99452.53
2023-03-24T10:16:39.889Z,99463.47
2023-03-24T10:19:23.570Z,99475.06
2023-03-24T10:22:00.503Z,99464.88
2023-03-24T10:24:40.546Z,99476.66
2023-03-24T10:27:21.662Z,99470.31
2023-03-24T10:29:55.621Z,99481.78
2023-03-24T10:32:30.905Z,99476.91
2023-03-24T10:35:09.838Z,99475.78
2023-03-24T10:37:40.955Z,99487.84
2023-03-24T10:40:22.386Z,99496.41
2023-03-24T10:43:07.164Z,99494.63
2023-03-24T10:45:44.409Z,99499.91
2023-03-24T10:48:17.360Z,99495.34
2023-03-24T10:50:49.433Z,99495.00
2023-03-24T10:53:21.925Z,99503.50
2023-03-24T10:55:56.603Z,99499.47
2023-03-24T10:58:39.231Z,99511.00
2023-03-24T11:01:28.598Z,99506.81
2023-03-24T11:04:03.908Z,99508.66
2023-03-24T11:06:36.499Z,99510.06
2023-03-24T11:09:13.071Z,99523.25
2023-03-24T11:11:46.418Z,99515.31
2023-03-24T11:14:26.707Z,99516.09
2023-03-24T11:17:13.278Z,99501.84
2023-03-24T11:19:54.456Z,99520.03
2023-03-24T11:22:26.370Z,99535.34
2023-03-24T11:24:59.935Z,99527.03
2023-03-24T11:27:34.440Z,99516.97
2023-03-24T11:30:05.435Z,99523.94
2023-03-24T11:32:36.293Z,99530.44
2023-03-24T11:35:12.250Z,99536.03
2023-03-24T11:37:42.994Z,99529.13
2023-03-24T11:40:25.333Z,99531.44
2023-03-24T11:43:03.148Z,99521.78
2023-03-24T11:45:42.723Z,99527.28
2023-03-24T11:48:24.423Z,99523.69
2023-03-24T11:50:56.685Z,99520.09
2023-03-24T11:53:30.334Z,99494.16
2023-03-24T11:56:06.315Z,99510.84
2023-03-24T11:58:46.151Z,99523.31
2023-03-24T12:01:31.754Z,99519.72
2023-03-24T12:04:19.629Z,99517.56
2023-03-24T12:07:02.899Z,99500.97
2023-03-24T12:09:41.965Z,99510.97
2023-03-24T12:12:33.582Z,99505.72
2023-03-24T12:15:31.751Z,99529.75
2023-03-24T12:18:14.158Z,99527.22
2023-03-24T12:20:54.250Z,99521.59
2023-03-24T12:23:33.018Z,99534.28
2023-03-24T12:26:17.116Z,99522.41
2023-03-24T12:28:55.593Z,99527.56
2023-03-24T12:31:59.332Z,99514.00
2023-03-24T12:34:54.609Z,99528.84
2023-03-24T12:37:32.862Z,99520.97
2023-03-24T12:40:32.571Z,99523.13
2023-03-24T12:43:13.303Z,99537.47
2023-03-24T12:45:49.871Z,99545.53
2023-03-24T12:48:38.782Z,99549.03
2023-03-24T12:51:19.726Z,99536.75
2023-03-24T12:54:06.404Z,99536.56
2023-03-24T12:56:43.081Z,99541.16
2023-03-24T12:59:17.792Z,99528.56
2023-03-24T13:01:53.492Z,99507.91
2023-03-24T13:04:32.234Z,99543.94
2023-03-24T13:07:09.172Z,99519.63
2023-03-24T13:09:46.598Z,99517.72
2023-03-24T13:12:21.783Z,99536.28
2023-03-24T13:15:03.097Z,99527.28
2023-03-24T13:17:40.383Z,99496.75
2023-03-24T13:20:17.703Z,99521.78
2023-03-24T13:22:48.697Z,99513.38
2023-03-24T13:25:32.422Z,99507.44
2023-03-24T13:28:12.903Z,99516.44
2023-03-24T13:30:46.657Z,99510.59
2023-03-24T13:33:20.183Z,99505.63
2023-03-24T13:36:14.658Z,99485.91
2023-03-24T13:38:50.408Z,99506.13
2023-03-24T13:41:24.319Z,99511.91
2023-03-24T13:44:02.468Z,99509.94
2023-03-24T13:46:33.925Z,99521.06
2023-03-24T13:49:09.718Z,99516.63
2023-03-24T13:51:47.841Z,99511.72
2023-03-24T13:54:22.230Z,99516.47
2023-03-24T13:56:57.248Z,99523.25
2023-03-24T13:59:31.860Z,99545.25
2023-03-24T14:02:25.361Z,99551.25
2023-03-24T14:05:08.088Z,99556.47
2023-03-24T14:07:52.730Z,99554.88
2023-03-24T14:10:48.465Z,99544.19
2023-03-24T14:13:39.375Z,99546.72
2023-03-24T14:16:45.901Z,99549.44
2023-03-24T14:19:28.928Z,99547.72
2023-03-24T14:22:16.444Z,99545.31
2023-03-24T14:25:00.136Z,99541.25
2023-03-24T14:27:37.618Z,99541.63
2023-03-24T14:30:21.517Z,99536.38
2023-03-24T14:32:55.051Z,99542.31
2023-03-24T14:35:29.083Z,99544.69
2023-03-24T14:38:03.214Z,99532.88
2023-03-24T14:40:42.834Z,99530.16
2023-03-24T14:43:25.003Z,99536.63
2023-03-24T14:45:58.695Z,99530.34
2023-03-24T14:48:36.340Z,99542.50
2023-03-24T14:51:36.927Z,99543.59
2023-03-24T14:54:10.486Z,99548.66
2023-03-24T14:56:47.187Z,99542.47
2023-03-24T14:59:28.232Z,99566.00
2023-03-24T15:02:07.535Z,99550.66
2023-03-24T15:04:39.633Z,99606.50
2023-03-24T15:07:16.303Z,99601.78
2023-03-24T15:09:52.416Z,99573.31
2023-03-24T15:12:26.452Z,99588.88
2023-03-24T15:14:59.037Z,99579.94
2023-03-24T15:17:32.368Z,99571.25
2023-03-24T15:20:03.169Z,99563.03
2023-03-24T15:22:44.143Z,99547.22
2023-03-24T15:25:17.501Z,99550.16
2023-03-24T15:27:56.796Z,99537.91
2023-03-24T15:30:28.174Z,99550.06
2023-03-24T15:32:59.068Z,99545.59
2023-03-24T15:35:29.893Z,99543.53
2023-03-24T15:38:01.696Z,99549.09
2023-03-24T15:40:42.151Z,99515.94
2023-03-24T15:43:23.511Z,99524.88
2023-03-24T15:46:08.915Z,99548.44
2023-03-24T15:48:42.204Z,99549.19
2023-03-24T15:51:15.472Z,99559.50
2023-03-24T15:53:49.607Z,99545.13
2023-03-24T15:56:24.002Z,99540.84
2023-03-24T15:58:58.839Z,99542.91
2023-03-24T16:01:36.545Z,99545.53
2023-03-24T16:04:10.755Z,99538.06
2023-03-24T16:06:48.714Z,99529.69
2023-03-24T16:09:21.881Z,99547.59
2023-03-24T16:11:53.624Z,99552.22
2023-03-24T16:14:29.547Z,99557.63
2023-03-24T16:17:05.368Z,99560.38
2023-03-24T16:19:36.207Z,99573.16
2023-03-24T16:22:12.209Z,99584.00
2023-03-24T16:24:42.919Z,99595.97
2023-03-24T16:27:14.971Z,99623.63
2023-03-24T16:29:48.329Z,99636.25
2023-03-24T16:32:19.088Z,99654.81
2023-03-24T16:34:49.846Z,99666.53
2023-03-24T16:37:20.441Z,99686.31
2023-03-24T16:39:51.072Z,99670.94
2023-03-24T16:42:21.931Z,99656.94
2023-03-24T16:44:55.061Z,99657.63
2023-03-24T16:47:25.948Z,99655.91
2023-03-24T16:49:56.570Z,99657.94
2023-03-24T16:52:27.214Z,99648.00
2023-03-24T16:54:58.270Z,99648.25
2023-03-24T16:57:29.033Z,99652.38
2023-03-24T17:00:11.183Z,99652.38
2023-03-24T17:02:48.834Z,99637.13
2023-03-24T17:05:24.588Z,99635.59
2023-03-24T17:07:55.207Z,99643.34
2023-03-24T17:10:26.902Z,99646.25
2023-03-24T17:12:59.075Z,99638.91
2023-03-24T17:15:34.257Z,99637.94
2023-03-24T17:18:05.494Z,99626.28
2023-03-24T17:20:40.325Z,99624.56
2023-03-24T17:23:12.806Z,99623.09
2023-03-24T17:25:43.383Z,99626.00
2023-03-24T17:28:17.024Z,99624.34
2023-03-24T17:30:50.447Z,99632.41
2023-03-24T17:33:21.598Z,99631.56
2023-03-24T17:35:52.706Z,99628.03
2023-03-24T17:38:23.440Z,99621.13
2023-03-24T17:41:01.841Z,99617.84
2023-03-24T17:43:33.065Z,99630.91
2023-03-24T17:46:06.471Z,99642.75
2023-03-24T17:48:37.947Z,99630.53
2023-03-24T17:51:09.138Z,99639.09
2023-03-24T17:53:39.943Z,99638.31
2023-03-24T17:56:11.223Z,99635.31
2023-03-24T17:58:41.899Z,99632.06
2023-03-24T18:01:18.557Z,99629.25
2023-03-24T18:03:49.969Z,99634.94
2023-03-24T18:06:21.454Z,99626.28
2023-03-24T18:08:55.044Z,99630.31
2023-03-24T18:11:26.822Z,99620.63
2023-03-24T18:13:57.917Z,99646.25
2023-03-24T18:16:31.584Z,99633.44
2023-03-24T18:19:05.183Z,99632.56
2023-03-24T18:21:36.062Z,99635.19
2023-03-24T18:24:07.889Z,99650.03
2023-03-24T18:26:38.690Z,99643.63
2023-03-24T18:29:09.291Z,99651.53
2023-03-24T18:31:42.627Z,99642.34
2023-03-24T18:34:13.226Z,99639.84
2023-03-24T18:36:46.459Z,99639.09
2023-03-24T18:39:17.402Z,99652.00
2023-03-24T18:41:48.333Z,99648.34
2023-03-24T18:44:21.418Z,99658.13
2023-03-24T18:46:55.634Z,99645.28
2023-03-24T18:49:25.851Z,99652.97
2023-03-24T18:51:56.409Z,99646.78
2023-03-24T18:54:27.773Z,99650.97
2023-03-24T18:56:58.595Z,99655.09
2023-03-24T18:59:31.217Z,99658.38
2023-03-24T19:02:04.474Z,99662.88
2023-03-24T19:04:34.981Z,99666.06
2023-03-24T19:07:08.263Z,99632.56
2023-03-24T19:09:38.926Z,99658.66
2023-03-24T19:12:09.967Z,99647.97
2023-03-24T19:14:42.317Z,99637.47
2023-03-24T19:17:16.100Z,99655.19
2023-03-24T19:19:47.012Z,99647.78
2023-03-24T19:22:23.693Z,99658.22
2023-03-24T19:24:54.296Z,99651.16
2023-03-24T19:27:25.072Z,99669.69
2023-03-24T19:29:55.670Z,99650.59
2023-03-24T19:32:28.899Z,99646.34
2023-03-24T19:34:59.611Z,99651.09
2023-03-24T19:37:32.214Z,99646.25
2023-03-24T19:40:05.962Z,99656.69
2023-03-24T19:42:40.040Z,99648.25
2023-03-24T19:45:12.160Z,99649.75
2023-03-24T19:47:46.188Z,99645.13
2023-03-24T19:50:24.615Z,99633.34
2023-03-24T19:52:55.291Z,99650.03
2023-03-24T19:55:26.167Z,99634.63
2023-03-24T19:58:00.428Z,99634.34
2023-03-24T20:00:31.684Z,99641.00
2023-03-24T20:03:05.510Z,99628.97
2023-03-24T20:05:36.798Z,99621.06
2023-03-24T20:08:08.058Z,99623.47
2023-03-24T20:10:40.241Z,99626.59
2023-03-24T20:13:11.672Z,99609.91
2023-03-24T20:15:47.025Z,99628.59
2023-03-24T20:18:20.562Z,99634.50
2023-03-24T20:20:51.483Z,99624.97
2023-03-24T20:23:22.572Z,99628.38
2023-03-24T20:25:53.594Z,99630.09
2023-03-24T20:28:24.366Z,99619.56
2023-03-24T20:31:00.686Z,99624.81
2023-03-24T20:33:34.225Z,99620.53
2023-03-24T20:36:05.187Z,99609.22
2023-03-24T20:38:36.342Z,99605.06
2023-03-24T20:41:08.806Z,99594.88
2023-03-24T20:43:40.274Z,99611.97
2023-03-24T20:46:14.715Z,99605.94
2023-03-24T20:48:48.369Z,99602.41
2023-03-24T20:51:19.453Z,99590.28
2023-03-24T20:53:50.443Z,99605.31
2023-03-24T20:56:21.934Z,99618.78
2023-03-24T20:58:52.965Z,99608.50
2023-03-24T21:01:24.947Z,99601.97
2023-03-24T21:04:04.984Z,99606.38
2023-03-24T21:06:40.807Z,99606.59
2023-03-24T21:09:11.582Z,99604.59
2023-03-24T21:11:42.143Z,99596.09
2023-03-24T21:14:13.244Z,99602.75
2023-03-24T21:16:43.979Z,99603.75
2023-03-24T21:19:18.770Z,99614.69
2023-03-24T21:21:50.853Z,99607.78
2023-03-24T21:24:21.572Z,99600.72
2023-03-24T21:26:54.037Z,99595.72
2023-03-24T21:29:26.746Z,99590.97
2023-03-24T21:31:57.323Z,99582.28
2023-03-24T21:34:30.696Z,99587.69
2023-03-24T21:37:01.780Z,99584.03
2023-03-24T21:39:32.385Z,99573.63
2023-03-24T21:42:03.250Z,99522.94
2023-03-24T21:44:34.440Z,99566.19
2023-03-24T21:47:05.187Z,99565.56
2023-03-24T21:49:38.319Z,99565.28
2023-03-24T21:52:09.370Z,99576.13
2023-03-24T21:54:41.046Z,99572.72
2023-03-24T21:57:12.772Z,99580.38
2023-03-24T21:59:45.265Z,99560.78
2023-03-24T22:02:18.522Z,99566.47
2023-03-24T22:04:54.074Z,99563.78
2023-03-24T22:07:25.471Z,99569.34
2023-03-24T22:09:56.139Z,99563.56
2023-03-24T22:12:27.355Z,99557.53
2023-03-24T22:15:01.142Z,99561.81
2023-03-24T22:17:32.546Z,99558.16
2023-03-24T22:20:08.671Z,99557.69
2023-03-24T22:22:41.178Z,99559.31
2023-03-24T22:25:14.581Z,99555.41
2023-03-24T22:27:45.283Z,99545.50
2023-03-24T22:30:17.047Z,99543.47
2023-03-24T22:32:47.697Z,99543.09
2023-03-24T22:35:31.363Z,99546.97
2023-03-24T22:38:14.882Z,99528.41
2023-03-24T22:40:45.804Z,99531.41
2023-03-24T22:43:16.446Z,99530.63
2023-03-24T22:45:48.392Z,99531.50
2023-03-24T22:48:19.320Z,99546.41
2023-03-24T22:50:53.633Z,99541.25
2023-03-24T22:53:24.440Z,99530.81
2023-03-24T22:55:55.233Z,99535.44
2023-03-24T22:58:25.769Z,99526.72
2023-03-24T23:00:59.054Z,99545.59
2023-03-24T23:03:29.650Z,99528.47
2023-03-24T23:06:04.837Z,99534.66
2023-03-24T23:08:54.569Z,99536.75
2023-03-24T23:11:25.347Z,99536.66
2023-03-24T23:14:05.351Z,99529.63
2023-03-24T23:16:38.117Z,99536.03
2023-03-24T23:19:09.777Z,99532.00
2023-03-24T23:21:43.132Z,99534.03
2023-03-24T23:24:16.519Z,99530.63
2023-03-24T23:26:47.430Z,99524.44
2023-03-24T23:29:18.085Z,99525.19
2023-03-24T23:31:48.582Z,99518.22
2023-03-24T23:34:19.574Z,99528.13
2023-03-24T23:36:53.337Z,99514.94
2023-03-24T23:39:24.200Z,99522.47
2023-03-24T23:41:55.098Z,99522.19
2023-03-24T23:44:26.150Z,99516.53
2023-03-24T23:46:57.821Z,99530.75
2023-03-24T23:49:28.952Z,99520.06
2023-03-24T23:52:02.745Z,99529.63
2023-03-24T23:54:33.798Z,99525.19
2023-03-24T23:57:04.842Z,99521.56
2023-03-24T23:59:36.696Z,99535.66
